createdAt,value
2024-01-08T00:00:42.083Z,-1.90
2024-01-08T00:03:09.175Z,-1.90
2024-01-08T00:05:42.318Z,-1.90
2024-01-08T00:08:09.760Z,-1.90
2024-01-08T00:10:39.976Z,-1.90
2024-01-08T00:13:07.437Z,-2.00
2024-01-08T00:15:34.394Z,-2.00
2024-01-08T00:18:01.864Z,-2.00
2024-01-08T00:20:29.131Z,-2.00
2024-01-08T00:22:56.122Z,-2.00
2024-01-08T00:25:23.464Z,-2.10
2024-01-08T00:27:51.344Z,-2.10
2024-01-08T00:30:18.691Z,-2.00
2024-01-08T00:32:46.209Z,-2.10
2024-01-08T00:35:13.551Z,-2.10
2024-01-08T00:37:42.379Z,-2.10
2024-01-08T00:40:10.957Z,-2.10
2024-01-08T00:42:38.918Z,-2.10
2024-01-08T00:45:06.664Z,-2.20
2024-01-08T00:47:34.276Z,-2.20
2024-01-08T00:50:02.590Z,-2.30
2024-01-08T00:52:30.109Z,-2.20
2024-01-08T00:55:13.667Z,-2.20
2024-01-08T00:57:40.868Z,-2.30
2024-01-08T01:00:11.761Z,-2.30
2024-01-08T01:02:40.045Z,-2.30
2024-01-08T01:05:07.277Z,-2.30
2024-01-08T01:07:34.450Z,-2.30
2024-01-08T01:10:01.285Z,-2.30
2024-01-08T01:12:28.109Z,-2.30
2024-01-08T01:14:54.849Z,-2.40
2024-01-08T01:17:22.824Z,-2.30
2024-01-08T01:19:49.755Z,-2.30
2024-01-08T01:22:16.528Z,-2.30
2024-01-08T01:24:43.337Z,-2.30
2024-01-08T01:27:10.173Z,-2.30
2024-01-08T01:29:37.288Z,-2.30
2024-01-08T01:32:06.146Z,-2.30
2024-01-08T01:34:32.937Z,-2.40
2024-01-08T01:36:59.701Z,-2.50
2024-01-08T01:39:26.438Z,-2.40
2024-01-08T01:41:53.240Z,-2.40
2024-01-08T01:44:20.045Z,-2.40
2024-01-08T01:46:49.373Z,-2.40
2024-01-08T01:49:18.473Z,-2.40
2024-01-08T01:51:50.210Z,-2.40
2024-01-08T01:54:23.893Z,-2.40
2024-01-08T01:56:59.588Z,-2.40
2024-01-08T01:59:28.996Z,-2.30
2024-01-08T02:01:57.405Z,-2.30
2024-01-08T02:04:29.244Z,-2.30
2024-01-08T02:06:57.851Z,-2.30
2024-01-08T02:09:26.050Z,-2.30
2024-01-08T02:11:53.114Z,-2.30
2024-01-08T02:14:19.978Z,-2.30
2024-01-08T02:16:46.889Z,-2.40
2024-01-08T02:19:13.747Z,-2.40
2024-01-08T02:21:40.675Z,-2.40
2024-01-08T02:24:07.797Z,-2.30
2024-01-08T02:26:37.964Z,-2.30
2024-01-08T02:29:05.370Z,-2.20
2024-01-08T02:31:32.563Z,-2.20
2024-01-08T02:33:59.471Z,-2.20
2024-01-08T02:36:26.321Z,-2.20
2024-01-08T02:38:53.082Z,-2.20
2024-01-08T02:41:19.898Z,-2.20
2024-01-08T02:43:46.834Z,-2.20
2024-01-08T02:46:13.688Z,-2.10
2024-01-08T02:48:40.599Z,-2.10
2024-01-08T02:51:07.456Z,-2.20
2024-01-08T02:53:34.317Z,-2.10
2024-01-08T02:56:01.195Z,-2.10
2024-01-08T02:58:28.458Z,-2.20
2024-01-08T03:00:55.336Z,-2.20
2024-01-08T03:03:22.350Z,-2.20
2024-01-08T03:05:49.080Z,-2.30
2024-01-08T03:08:15.877Z,-2.40
2024-01-08T03:10:42.763Z,-2.30
2024-01-08T03:13:09.707Z,-2.30
2024-01-08T03:15:36.531Z,-2.30
2024-01-08T03:18:03.465Z,-2.40
2024-01-08T03:20:30.284Z,-2.40
2024-01-08T03:22:57.082Z,-2.50
2024-01-08T03:25:23.907Z,-2.50
2024-01-08T03:27:50.643Z,-2.60
2024-01-08T03:30:17.574Z,-2.60
2024-01-08T03:32:44.601Z,-2.50
2024-01-08T03:35:11.983Z,-2.60
2024-01-08T03:37:39.281Z,-2.60
2024-01-08T03:40:07.711Z,-2.60
2024-01-08T03:42:34.599Z,-2.60
2024-01-08T03:45:01.517Z,-2.60
2024-01-08T03:47:28.561Z,-2.70
2024-01-08T03:49:56.439Z,-2.60
2024-01-08T03:52:26.537Z,-2.60
2024-01-08T03:54:53.256Z,-2.60
2024-01-08T03:57:20.069Z,-2.70
2024-01-08T03:59:47.520Z,-2.60
2024-01-08T04:02:15.435Z,-2.60
2024-01-08T04:04:43.452Z,-2.70
2024-01-08T04:07:13.483Z,-2.70
2024-01-08T04:09:42.413Z,-2.60
2024-01-08T04:12:09.161Z,-2.60
2024-01-08T04:14:37.771Z,-2.60
2024-01-08T04:17:08.212Z,-2.60
2024-01-08T04:19:35.071Z,-2.60
2024-01-08T04:22:01.864Z,-2.60
2024-01-08T04:24:28.636Z,-2.60
2024-01-08T04:26:55.353Z,-2.60
2024-01-08T04:29:22.059Z,-2.60
2024-01-08T04:31:48.814Z,-2.50
2024-01-08T04:34:15.723Z,-2.60
2024-01-08T04:36:46.460Z,-2.60
2024-01-08T04:39:13.399Z,-2.60
2024-01-08T04:41:41.541Z,-2.70
2024-01-08T04:44:10.661Z,-2.60
2024-01-08T04:46:37.676Z,-2.60
2024-01-08T04:49:05.174Z,-2.60
2024-01-08T04:51:32.760Z,-2.50
2024-01-08T04:53:59.588Z,-2.70
2024-01-08T04:56:26.930Z,-2.60
2024-01-08T04:58:54.757Z,-2.60
2024-01-08T05:01:22.296Z,-2.60
2024-01-08T05:03:49.273Z,-2.60
2024-01-08T05:06:16.334Z,-2.60
2024-01-08T05:08:43.153Z,-2.50
2024-01-08T05:11:10.129Z,-2.50
2024-01-08T05:13:36.916Z,-2.50
2024-01-08T05:16:03.891Z,-2.60
2024-01-08T05:18:30.931Z,-2.60
2024-01-08T05:20:57.779Z,-2.40
2024-01-08T05:23:24.535Z,-2.50
2024-01-08T05:25:51.499Z,-2.60
2024-01-08T05:28:18.419Z,-2.50
2024-01-08T05:30:47.474Z,-2.40
2024-01-08T05:33:14.344Z,-2.40
2024-01-08T05:35:42.052Z,-2.40
2024-01-08T05:38:08.991Z,-2.40
2024-01-08T05:40:35.753Z,-2.40
2024-01-08T05:43:02.482Z,-2.40
2024-01-08T05:45:29.260Z,-2.50
2024-01-08T05:47:56.480Z,-2.50
2024-01-08T05:50:28.707Z,-2.50
2024-01-08T05:52:55.789Z,-2.50
2024-01-08T05:55:23.040Z,-2.50
2024-01-08T05:57:49.811Z,-2.50
2024-01-08T06:00:17.489Z,-2.50
2024-01-08T06:02:44.458Z,-2.50
2024-01-08T06:05:13.419Z,-2.60
2024-01-08T06:07:41.483Z,-2.50
2024-01-08T06:10:08.560Z,-2.50
2024-01-08T06:12:35.476Z,-2.40
2024-01-08T06:15:02.303Z,-2.30
2024-01-08T06:17:29.077Z,-2.30
2024-01-08T06:19:55.889Z,-2.40
2024-01-08T06:22:22.961Z,-2.40
2024-01-08T06:24:49.767Z,-2.40
2024-01-08T06:27:16.736Z,-2.50
2024-01-08T06:29:43.623Z,-2.50
2024-01-08T06:32:11.580Z,-2.40
2024-01-08T06:34:38.522Z,-2.40
2024-01-08T06:37:05.350Z,-2.40
2024-01-08T06:39:32.139Z,-2.40
2024-01-08T06:41:58.870Z,-2.60
2024-01-08T06:44:26.260Z,-2.50
2024-01-08T06:46:53.152Z,-2.40
2024-01-08T06:49:20.118Z,-2.40
2024-01-08T06:51:47.045Z,-2.40
2024-01-08T06:54:14.770Z,-2.40
2024-01-08T06:56:41.761Z,-2.30
2024-01-08T06:59:08.769Z,-2.40
2024-01-08T07:01:35.607Z,-2.40
2024-01-08T07:04:02.300Z,-2.40
2024-01-08T07:06:29.352Z,-2.40
2024-01-08T07:08:56.463Z,-2.40
2024-01-08T07:11:24.416Z,-2.30
2024-01-08T07:13:52.244Z,-2.30
2024-01-08T07:16:19.719Z,-2.30
2024-01-08T07:18:47.491Z,-2.40
2024-01-08T07:21:17.876Z,-2.30
2024-01-08T07:23:49.939Z,-2.30
2024-01-08T07:26:18.004Z,-2.30
2024-01-08T07:28:46.289Z,-2.40
2024-01-08T07:31:17.405Z,-2.30
2024-01-08T07:33:44.628Z,-2.30
2024-01-08T07:36:11.404Z,-2.20
2024-01-08T07:38:38.693Z,-2.20
2024-01-08T07:41:08.482Z,-2.30
2024-01-08T07:43:37.149Z,-2.30
2024-01-08T07:46:04.319Z,-2.20
2024-01-08T07:48:31.294Z,-2.20
2024-01-08T07:50:58.100Z,-2.20
2024-01-08T07:53:24.911Z,-2.20
2024-01-08T07:55:51.735Z,-2.20
2024-01-08T07:58:24.644Z,-2.20
2024-01-08T08:00:58.726Z,-2.20
2024-01-08T08:03:25.997Z,-2.20
2024-01-08T08:05:53.083Z,-2.20
2024-01-08T08:08:20.106Z,-2.20
2024-01-08T08:10:47.666Z,-2.10
2024-01-08T08:13:14.528Z,-2.10
2024-01-08T08:15:41.293Z,-2.10
2024-01-08T08:18:09.270Z,-2.10
2024-01-08T08:20:38.294Z,-2.10
2024-01-08T08:23:05.670Z,-2.10
2024-01-08T08:25:32.684Z,-2.00
2024-01-08T08:27:59.513Z,-2.00
2024-01-08T08:30:27.673Z,-2.00
2024-01-08T08:32:57.915Z,-2.00
2024-01-08T08:35:25.110Z,-2.10
2024-01-08T08:37:59.639Z,-2.10
2024-01-08T08:40:26.786Z,-2.10
2024-01-08T08:42:53.915Z,-2.10
2024-01-08T08:45:20.941Z,-2.10
2024-01-08T08:47:48.044Z,-2.00
2024-01-08T08:50:15.082Z,-2.00
2024-01-08T08:52:45.099Z,-2.00
2024-01-08T08:55:13.963Z,-1.90
2024-01-08T08:57:41.029Z,-1.80
2024-01-08T09:00:10.003Z,-1.80
2024-01-08T09:02:37.218Z,-1.70
2024-01-08T09:05:06.108Z,-1.70
2024-01-08T09:07:33.026Z,-1.60
2024-01-08T09:09:59.860Z,-1.70
2024-01-08T09:12:28.082Z,-1.70
2024-01-08T09:14:55.045Z,-1.70
2024-01-08T09:17:22.139Z,-1.60
2024-01-08T09:19:53.395Z,-1.60
2024-01-08T09:22:22.077Z,-1.60
2024-01-08T09:24:48.821Z,-1.80
2024-01-08T09:27:15.568Z,-1.80
2024-01-08T09:29:42.321Z,-1.70
2024-01-08T09:32:09.102Z,-1.70
2024-01-08T09:34:35.907Z,-1.60
2024-01-08T09:37:02.710Z,-1.70
2024-01-08T09:39:29.505Z,-1.70
2024-01-08T09:41:56.491Z,-1.60
2024-01-08T09:44:24.002Z,-1.50
2024-01-08T09:46:52.956Z,-1.50
2024-01-08T09:49:21.944Z,-1.50
2024-01-08T09:51:49.734Z,-1.40
2024-01-08T09:54:21.545Z,-1.50
2024-01-08T09:56:54.336Z,-1.40
2024-01-08T09:59:21.268Z,-1.50
2024-01-08T10:01:48.058Z,-1.50
2024-01-08T10:04:16.640Z,-1.50
2024-01-08T10:06:45.957Z,-1.60
2024-01-08T10:09:15.796Z,-1.50
2024-01-08T10:11:43.612Z,-1.60
2024-01-08T10:14:17.792Z,-1.60
2024-01-08T10:16:55.274Z,-1.50
2024-01-08T10:19:28.996Z,-1.50
2024-01-08T10:22:15.002Z,-1.40
2024-01-08T10:24:44.025Z,-1.40
2024-01-08T10:27:12.582Z,-1.40
2024-01-08T10:29:42.149Z,-1.30
2024-01-08T10:32:11.820Z,-1.30
2024-01-08T10:34:40.026Z,-1.20
2024-01-08T10:37:07.034Z,-1.20
2024-01-08T10:39:44.773Z,-1.10
2024-01-08T10:42:18.012Z,-1.20
2024-01-08T10:44:45.014Z,-1.30
2024-01-08T10:47:17.432Z,-1.50
2024-01-08T10:49:51.259Z,-1.50
2024-01-08T10:52:34.714Z,-1.50
2024-01-08T10:55:03.586Z,-1.50
2024-01-08T10:57:37.681Z,-1.50
2024-01-08T11:00:08.111Z,-1.40
2024-01-08T11:02:38.645Z,-1.30
2024-01-08T11:05:09.800Z,-1.40
2024-01-08T11:07:39.747Z,-1.30
2024-01-08T11:10:08.167Z,-1.30
2024-01-08T11:12:42.356Z,-1.20
2024-01-08T11:15:10.271Z,-1.20
2024-01-08T11:17:37.203Z,-1.20
2024-01-08T11:20:08.052Z,-1.30
2024-01-08T11:22:39.009Z,-1.30
2024-01-08T11:25:06.968Z,-1.20
2024-01-08T11:27:33.814Z,-1.10
2024-01-08T11:30:05.305Z,-0.90
2024-01-08T11:33:02.866Z,-0.90
2024-01-08T11:35:30.497Z,-1.00
2024-01-08T11:38:32.826Z,-1.00
2024-01-08T11:41:00.919Z,-1.00
2024-01-08T11:43:29.051Z,-1.00
2024-01-08T11:45:55.764Z,-1.00
2024-01-08T11:48:22.651Z,-0.90
2024-01-08T11:50:49.632Z,-0.90
2024-01-08T11:53:17.867Z,-0.80
2024-01-08T11:55:46.893Z,-0.60
2024-01-08T11:58:13.644Z,-0.50
2024-01-08T12:00:40.459Z,-0.70
2024-01-08T12:03:10.991Z,-0.60
2024-01-08T12:05:41.078Z,-0.40
2024-01-08T12:08:17.186Z,-0.50
2024-01-08T12:10:45.524Z,-0.60
2024-01-08T12:13:14.346Z,-0.60
2024-01-08T12:15:41.233Z,-0.70
2024-01-08T12:18:10.268Z,-0.70
2024-01-08T12:20:37.139Z,-0.70
2024-01-08T12:23:04.123Z,-0.80
2024-01-08T12:25:30.887Z,-0.70
2024-01-08T12:28:01.403Z,-0.90
2024-01-08T12:30:28.859Z,-0.90
2024-01-08T12:32:57.796Z,-1.00
2024-01-08T12:35:25.308Z,-1.00
2024-01-08T12:37:53.685Z,-1.10
2024-01-08T12:40:20.588Z,-1.00
2024-01-08T12:42:54.224Z,-0.90
2024-01-08T12:45:21.062Z,-1.00
2024-01-08T12:47:48.112Z,-1.00
2024-01-08T12:50:14.949Z,-1.00
2024-01-08T12:52:41.726Z,-1.10
2024-01-08T12:55:08.780Z,-1.20
2024-01-08T12:57:35.496Z,-1.30
2024-01-08T13:00:05.131Z,-1.20
2024-01-08T13:02:33.921Z,-1.20
2024-01-08T13:05:02.580Z,-1.10
2024-01-08T13:07:29.452Z,-1.10
2024-01-08T13:09:56.882Z,-1.20
2024-01-08T13:12:23.594Z,-1.20
2024-01-08T13:14:50.329Z,-1.20
2024-01-08T13:17:17.523Z,-1.00
2024-01-08T13:19:44.378Z,-1.00
2024-01-08T13:23:03.946Z,-1.10
2024-01-08T13:25:36.566Z,-1.20
2024-01-08T13:28:03.585Z,-1.30
2024-01-08T13:30:30.601Z,-1.30
2024-01-08T13:32:58.382Z,-1.30
2024-01-08T13:35:25.231Z,-1.30
2024-01-08T13:37:52.055Z,-1.40
2024-01-08T13:40:22.185Z,-1.50
2024-01-08T13:42:51.499Z,-1.50
2024-01-08T13:45:18.234Z,-1.40
2024-01-08T13:47:56.589Z,-1.30
2024-01-08T13:50:23.737Z,-1.30
2024-01-08T13:52:50.546Z,-1.30
2024-01-08T13:55:17.331Z,-1.40
2024-01-08T13:57:44.096Z,-1.30
2024-01-08T14:00:11.304Z,-1.30
2024-01-08T14:02:38.960Z,-1.40
2024-01-08T14:05:07.824Z,-1.40
2024-01-08T14:07:34.670Z,-1.30
2024-01-08T14:10:01.434Z,-1.50
2024-01-08T14:12:28.187Z,-1.60
2024-01-08T14:14:55.052Z,-1.50
2024-01-08T14:17:21.946Z,-1.50
2024-01-08T14:19:48.708Z,-1.50
2024-01-08T14:22:15.518Z,-1.50
2024-01-08T14:24:42.301Z,-1.30
2024-01-08T14:27:09.016Z,-1.40
2024-01-08T14:29:35.877Z,-1.40
2024-01-08T14:32:02.708Z,-1.30
2024-01-08T14:34:29.612Z,-1.40
2024-01-08T14:36:57.715Z,-1.40
2024-01-08T14:39:24.529Z,-1.40
2024-01-08T14:41:59.405Z,-1.40
2024-01-08T14:44:26.223Z,-1.40
2024-01-08T14:46:53.029Z,-1.30
2024-01-08T14:49:19.801Z,-1.30
2024-01-08T14:51:46.639Z,-1.30
2024-01-08T14:54:14.062Z,-1.40
2024-01-08T14:56:41.062Z,-1.40
2024-01-08T14:59:08.012Z,-1.40
2024-01-08T15:01:35.167Z,-1.40
2024-01-08T15:04:02.006Z,-1.50
2024-01-08T15:06:28.824Z,-1.50
2024-01-08T15:08:56.068Z,-1.50
2024-01-08T15:11:23.014Z,-1.60
2024-01-08T15:13:49.793Z,-1.80
2024-01-08T15:16:16.627Z,-1.50
2024-01-08T15:18:43.493Z,-1.50
2024-01-08T15:21:10.684Z,-1.50
2024-01-08T15:23:40.330Z,-1.60
2024-01-08T15:26:07.597Z,-1.70
2024-01-08T15:28:35.755Z,-2.00
2024-01-08T15:31:02.978Z,-1.60
2024-01-08T15:33:30.274Z,-1.50
2024-01-08T15:35:58.626Z,-1.50
2024-01-08T15:38:26.373Z,-1.60
2024-01-08T15:40:56.167Z,-1.40
2024-01-08T15:43:25.344Z,-1.40
2024-01-08T15:45:53.116Z,-1.40
2024-01-08T15:48:20.058Z,-1.50
2024-01-08T15:50:46.896Z,-1.40
2024-01-08T15:53:13.801Z,-1.40
2024-01-08T15:55:40.574Z,-1.50
2024-01-08T15:58:07.314Z,-1.40
2024-01-08T16:00:34.037Z,-1.40
2024-01-08T16:03:02.717Z,-1.50
2024-01-08T16:05:30.099Z,-1.50
2024-01-08T16:07:56.933Z,-1.50
2024-01-08T16:10:23.696Z,-1.50
2024-01-08T16:12:52.555Z,-1.40
2024-01-08T16:15:19.342Z,-1.50
2024-01-08T16:17:46.230Z,-1.60
2024-01-08T16:20:13.231Z,-1.50
2024-01-08T16:22:40.068Z,-1.50
2024-01-08T16:25:07.140Z,-1.40
2024-01-08T16:27:33.983Z,-1.50
2024-01-08T16:30:00.859Z,-1.50
2024-01-08T16:32:27.631Z,-1.50
2024-01-08T16:34:56.416Z,-1.50
2024-01-08T16:37:23.814Z,-1.50
2024-01-08T16:39:51.489Z,-1.60
2024-01-08T16:42:18.257Z,-1.50
2024-01-08T16:44:45.289Z,-1.60
2024-01-08T16:47:12.552Z,-1.50
2024-01-08T16:49:39.504Z,-1.50
2024-01-08T16:52:06.609Z,-1.50
2024-01-08T16:54:33.439Z,-1.50
2024-01-08T16:57:00.221Z,-1.50
2024-01-08T16:59:27.033Z,-1.50
2024-01-08T17:01:53.900Z,-1.60
2024-01-08T17:04:20.738Z,-1.60
2024-01-08T17:06:47.477Z,-1.50
2024-01-08T17:09:15.991Z,-1.50
2024-01-08T17:11:43.923Z,-1.60
2024-01-08T17:14:10.729Z,-1.60
2024-01-08T17:16:37.549Z,-1.70
2024-01-08T17:19:04.424Z,-1.70
2024-01-08T17:21:31.270Z,-1.70
2024-01-08T17:23:58.007Z,-1.70
2024-01-08T17:26:24.799Z,-1.70
2024-01-08T17:28:56.207Z,-1.70
2024-01-08T17:31:23.521Z,-1.70
2024-01-08T17:33:56.507Z,-1.60
2024-01-08T17:36:24.131Z,-1.50
2024-01-08T17:38:50.876Z,-1.60
2024-01-08T17:41:17.633Z,-1.70
2024-01-08T17:43:46.232Z,-1.70
2024-01-08T17:46:12.921Z,-1.70
2024-01-08T17:48:39.784Z,-1.60
2024-01-08T17:51:06.628Z,-1.60
2024-01-08T17:53:40.672Z,-1.60
2024-01-08T17:56:08.332Z,-1.60
2024-01-08T17:58:37.486Z,-1.60
2024-01-08T18:01:05.119Z,-1.70
2024-01-08T18:03:31.916Z,-1.70
2024-01-08T18:06:00.078Z,-1.70
2024-01-08T18:08:33.226Z,-1.70
2024-01-08T18:11:00.266Z,-1.70
2024-01-08T18:13:27.055Z,-1.70
2024-01-08T18:16:01.052Z,-1.70
2024-01-08T18:18:27.906Z,-1.70
2024-01-08T18:20:54.751Z,-1.70
2024-01-08T18:23:21.586Z,-1.70
2024-01-08T18:25:48.528Z,-1.70
2024-01-08T18:28:16.279Z,-1.60
2024-01-08T18:30:46.874Z,-1.70
2024-01-08T18:33:18.304Z,-1.70
2024-01-08T18:35:47.141Z,-1.70
2024-01-08T18:38:16.399Z,-1.70
2024-01-08T18:40:43.299Z,-1.70
2024-01-08T18:43:10.179Z,-1.70
2024-01-08T18:45:36.965Z,-1.80
2024-01-08T18:48:04.087Z,-1.80
2024-01-08T18:50:31.028Z,-1.80
2024-01-08T18:52:57.870Z,-1.70
2024-01-08T18:55:24.651Z,-1.70
2024-01-08T18:57:51.391Z,-1.70
2024-01-08T19:00:18.606Z,-1.70
2024-01-08T19:02:45.427Z,-1.90
2024-01-08T19:05:14.286Z,-1.90
2024-01-08T19:07:43.196Z,-2.00
2024-01-08T19:10:10.719Z,-1.80
2024-01-08T19:12:38.134Z,-1.80
2024-01-08T19:15:10.403Z,-1.70
2024-01-08T19:17:41.420Z,-1.80
2024-01-08T19:20:08.897Z,-1.80
2024-01-08T19:22:35.755Z,-1.70
2024-01-08T19:25:02.724Z,-1.70
2024-01-08T19:27:29.491Z,-1.80
2024-01-08T19:29:56.445Z,-1.70
2024-01-08T19:32:23.256Z,-1.70
2024-01-08T19:34:50.084Z,-1.70
2024-01-08T19:37:16.978Z,-1.70
2024-01-08T19:39:43.772Z,-1.60
2024-01-08T19:42:10.525Z,-1.70
2024-01-08T19:44:37.376Z,-1.70
2024-01-08T19:47:04.347Z,-1.80
2024-01-08T19:49:32.342Z,-1.80
2024-01-08T19:51:59.926Z,-1.70
2024-01-08T19:54:34.280Z,-1.60
2024-01-08T19:57:01.111Z,-1.70
2024-01-08T19:59:28.221Z,-1.80
2024-01-08T20:01:58.927Z,-1.80
2024-01-08T20:04:26.223Z,-1.80
2024-01-08T20:06:53.387Z,-1.70
2024-01-08T20:09:20.164Z,-1.70
2024-01-08T20:11:47.584Z,-1.60
2024-01-08T20:14:14.603Z,-1.60
2024-01-08T20:16:41.354Z,-1.80
2024-01-08T20:19:08.144Z,-1.70
2024-01-08T20:21:35.609Z,-1.70
2024-01-08T20:24:05.205Z,-1.70
2024-01-08T20:26:31.975Z,-1.80
2024-01-08T20:28:58.714Z,-1.80
2024-01-08T20:31:25.444Z,-1.80
2024-01-08T20:33:53.708Z,-1.70
2024-01-08T20:36:20.626Z,-1.80
2024-01-08T20:38:47.513Z,-1.80
2024-01-08T20:41:14.375Z,-1.90
2024-01-08T20:43:44.367Z,-1.90
2024-01-08T20:46:14.671Z,-1.80
2024-01-08T20:48:41.622Z,-1.80
2024-01-08T20:51:08.651Z,-1.80
2024-01-08T20:53:36.076Z,-1.80
2024-01-08T20:56:04.425Z,-1.80
2024-01-08T20:58:31.201Z,-1.90
2024-01-08T21:00:58.025Z,-2.00
2024-01-08T21:03:24.863Z,-1.90
2024-01-08T21:05:52.230Z,-1.90
2024-01-08T21:08:19.090Z,-1.90
2024-01-08T21:10:45.881Z,-1.90
2024-01-08T21:13:12.627Z,-1.90
2024-01-08T21:15:39.445Z,-1.90
2024-01-08T21:18:06.660Z,-1.90
2024-01-08T21:20:34.316Z,-1.90
2024-01-08T21:23:01.356Z,-1.90
2024-01-08T21:25:28.327Z,-1.80
2024-01-08T21:27:57.169Z,-1.80
2024-01-08T21:30:24.139Z,-1.90
2024-01-08T21:32:51.060Z,-1.90
2024-01-08T21:35:18.066Z,-1.90
2024-01-08T21:37:45.164Z,-1.80
2024-01-08T21:40:12.300Z,-1.80
2024-01-08T21:42:39.347Z,-1.90
2024-01-08T21:45:06.481Z,-2.00
2024-01-08T21:47:33.342Z,-2.10
2024-01-08T21:50:01.095Z,-2.00
2024-01-08T21:52:28.233Z,-2.00
2024-01-08T21:54:55.216Z,-2.10
2024-01-08T21:57:22.019Z,-2.00
2024-01-08T21:59:48.821Z,-2.10
2024-01-08T22:02:15.759Z,-2.10
2024-01-08T22:04:42.570Z,-2.00
2024-01-08T22:07:09.502Z,-2.00
2024-01-08T22:09:36.316Z,-2.00
2024-01-08T22:12:03.217Z,-1.90
2024-01-08T22:14:29.975Z,-1.80
2024-01-08T22:16:56.745Z,-1.80
2024-01-08T22:19:23.552Z,-1.80
2024-01-08T22:21:50.470Z,-2.00
2024-01-08T22:24:17.327Z,-2.00
2024-01-08T22:26:44.197Z,-2.00
2024-01-08T22:29:11.290Z,-2.00
2024-01-08T22:31:38.337Z,-1.90
2024-01-08T22:34:05.295Z,-0.90
2024-01-08T22:36:32.257Z,-2.10
2024-01-08T22:38:59.072Z,-2.10
2024-01-08T22:41:26.151Z,-2.00
2024-01-08T22:43:54.106Z,-1.90
2024-01-08T22:46:22.285Z,-2.00
2024-01-08T22:48:50.238Z,-2.00
2024-01-08T22:51:17.065Z,-2.00
2024-01-08T22:53:43.893Z,-2.10
2024-01-08T22:56:11.066Z,-2.10
2024-01-08T22:58:37.973Z,-2.00
2024-01-08T23:01:09.171Z,-2.10
2024-01-08T23:03:36.073Z,-2.00
2024-01-08T23:06:03.094Z,-2.00
2024-01-08T23:08:30.146Z,-0.60
2024-01-08T23:10:57.032Z,-1.90
2024-01-08T23:13:23.748Z,-2.30
2024-01-08T23:15:50.483Z,-2.10
2024-01-08T23:18:17.449Z,-2.10
2024-01-08T23:20:44.543Z,-2.10
2024-01-08T23:23:11.347Z,-2.10
2024-01-08T23:25:38.138Z,-2.10
2024-01-08T23:28:05.140Z,-2.00
2024-01-08T23:30:31.992Z,-2.10
2024-01-08T23:32:59.031Z,-2.10
2024-01-08T23:35:25.908Z,-2.00
2024-01-08T23:37:52.673Z,-2.10
2024-01-08T23:40:19.386Z,-2.10
2024-01-08T23:42:46.103Z,-2.10
2024-01-08T23:45:12.881Z,-2.30
2024-01-08T23:47:39.785Z,-2.20
2024-01-08T23:50:06.861Z,-2.20
2024-01-08T23:52:33.665Z,-2.30
2024-01-08T23:55:00.494Z,-2.20
2024-01-08T23:57:27.575Z,-2.40
2024-01-08T23:59:54.337Z,-2.30
